sensor_id;sensor_type;location;lat;lon;timestamp;pressure;altitude;pressure_sealevel;temperature;humidity
12664;BME280;6396;58.490;15.528;2023-09-18T00:00:23;101496.13;;;12.23;100.00
12664;BME280;6396;58.490;15.528;2023-09-18T00:02:50;101484.63;;;12.23;100.00
12664;BME280;6396;58.490;15.528;2023-09-18T00:05:17;101485.66;;;12.16;100.00
12664;BME280;6396;58.490;15.528;2023-09-18T00:07:45;101476.81;;;12.17;100.00
12664;BME280;6396;58.490;15.528;2023-09-18T00:10:12;101449.56;;;12.12;100.00
12664;BME280;6396;58.490;15.528;2023-09-18T00:12:40;101424.22;;;11.99;100.00
12664;BME280;6396;58.490;15.528;2023-09-18T00:15:07;101483.75;;;12.24;100.00
12664;BME280;6396;58.490;15.528;2023-09-18T00:17:34;101430.69;;;11.83;100.00
12664;BME280;6396;58.490;15.528;2023-09-18T00:20:01;101416.09;;;11.59;100.00
12664;BME280;6396;58.490;15.528;2023-09-18T00:22:30;101313.25;;;10.92;100.00
12664;BME280;6396;58.490;15.528;2023-09-18T00:24:58;101407.47;;;11.48;100.00
12664;BME280;6396;58.490;15.528;2023-09-18T00:27:26;101475.63;;;11.87;100.00
12664;BME280;6396;58.490;15.528;2023-09-18T00:29:53;101385.63;;;11.37;100.00
12664;BME280;6396;58.490;15.528;2023-09-18T00:32:20;101149.97;;;10.12;100.00
12664;BME280;6396;58.490;15.528;2023-09-18T00:34:47;101341.81;;;11.22;100.00
12664;BME280;6396;58.490;15.528;2023-09-18T00:37:13;101223.22;;;10.54;100.00
12664;BME280;6396;58.490;15.528;2023-09-18T00:39:42;101245.09;;;10.61;100.00
12664;BME280;6396;58.490;15.528;2023-09-18T00:42:10;101061.03;;;9.01;100.00
12664;BME280;6396;58.490;15.528;2023-09-18T00:44:39;101244.88;;;10.20;100.00
12664;BME280;6396;58.490;15.528;2023-09-18T00:47:06;101324.06;;;10.77;100.00
12664;BME280;6396;58.490;15.528;2023-09-18T00:49:34;101464.78;;;11.48;100.00
12664;BME280;6396;58.490;15.528;2023-09-18T00:52:02;101339.13;;;10.72;100.00
12664;BME280;6396;58.490;15.528;2023-09-18T00:54:30;101447.97;;;11.52;100.00
12664;BME280;6396;58.490;15.528;2023-09-18T00:56:58;101473.41;;;11.59;100.00
12664;BME280;6396;58.490;15.528;2023-09-18T00:59:27;101327.38;;;10.91;100.00
12664;BME280;6396;58.490;15.528;2023-09-18T01:01:54;101229.06;;;10.17;100.00
12664;BME280;6396;58.490;15.528;2023-09-18T01:04:21;101325.66;;;10.89;100.00
12664;BME280;6396;58.490;15.528;2023-09-18T01:06:50;101462.91;;;11.56;100.00
12664;BME280;6396;58.490;15.528;2023-09-18T01:09:18;101424.00;;;11.61;100.00
12664;BME280;6396;58.490;15.528;2023-09-18T01:11:50;101365.81;;;11.10;100.00
12664;BME280;6396;58.490;15.528;2023-09-18T01:14:22;101310.81;;;10.80;100.00
12664;BME280;6396;58.490;15.528;2023-09-18T01:16:57;101223.63;;;10.29;100.00
12664;BME280;6396;58.490;15.528;2023-09-18T01:19:37;101438.28;;;11.51;100.00
12664;BME280;6396;58.490;15.528;2023-09-18T01:22:05;101441.97;;;11.41;100.00
12664;BME280;6396;58.490;15.528;2023-09-18T01:24:34;101434.94;;;11.40;100.00
12664;BME280;6396;58.490;15.528;2023-09-18T01:27:02;101257.84;;;10.35;100.00
12664;BME280;6396;58.490;15.528;2023-09-18T01:29:29;101359.06;;;10.93;100.00
12664;BME280;6396;58.490;15.528;2023-09-18T01:31:56;101415.81;;;11.24;100.00
12664;BME280;6396;58.490;15.528;2023-09-18T01:34:26;101413.31;;;11.15;100.00
12664;BME280;6396;58.490;15.528;2023-09-18T01:36:57;101421.06;;;11.25;100.00
12664;BME280;6396;58.490;15.528;2023-09-18T01:39:25;101420.25;;;11.22;100.00
12664;BME280;6396;58.490;15.528;2023-09-18T01:41:58;101358.91;;;11.02;100.00
12664;BME280;6396;58.490;15.528;2023-09-18T01:44:27;101144.78;;;9.44;100.00
12664;BME280;6396;58.490;15.528;2023-09-18T01:46:54;101382.59;;;11.08;100.00
12664;BME280;6396;58.490;15.528;2023-09-18T01:49:29;101365.97;;;11.01;100.00
12664;BME280;6396;58.490;15.528;2023-09-18T01:51:56;101403.25;;;11.38;100.00
12664;BME280;6396;58.490;15.528;2023-09-18T01:54:23;101394.41;;;11.39;100.00
12664;BME280;6396;58.490;15.528;2023-09-18T01:56:51;101315.81;;;10.97;100.00
12664;BME280;6396;58.490;15.528;2023-09-18T01:59:20;101070.25;;;9.33;100.00
12664;BME280;6396;58.490;15.528;2023-09-18T02:01:48;101395.19;;;11.46;100.00
12664;BME280;6396;58.490;15.528;2023-09-18T02:04:15;101410.13;;;11.48;100.00
12664;BME280;6396;58.490;15.528;2023-09-18T02:06:42;101397.72;;;11.52;100.00
12664;BME280;6396;58.490;15.528;2023-09-18T02:09:09;101401.31;;;11.49;100.00
12664;BME280;6396;58.490;15.528;2023-09-18T02:11:37;101380.13;;;11.48;100.00
12664;BME280;6396;58.490;15.528;2023-09-18T02:14:04;101221.06;;;10.23;100.00
12664;BME280;6396;58.490;15.528;2023-09-18T02:16:34;101385.41;;;11.51;100.00
12664;BME280;6396;58.490;15.528;2023-09-18T02:19:01;101382.72;;;11.52;100.00
12664;BME280;6396;58.490;15.528;2023-09-18T02:21:28;101337.41;;;11.21;100.00
12664;BME280;6396;58.490;15.528;2023-09-18T02:23:55;101385.44;;;11.48;100.00
12664;BME280;6396;58.490;15.528;2023-09-18T02:26:23;101324.28;;;11.17;100.00
12664;BME280;6396;58.490;15.528;2023-09-18T02:28:51;101397.72;;;11.52;100.00
12664;BME280;6396;58.490;15.528;2023-09-18T02:31:19;101369.81;;;11.34;100.00
12664;BME280;6396;58.490;15.528;2023-09-18T02:33:47;101379.31;;;11.46;100.00
12664;BME280;6396;58.490;15.528;2023-09-18T02:36:14;101384.66;;;11.41;100.00
12664;BME280;6396;58.490;15.528;2023-09-18T02:38:41;101368.75;;;11.46;100.00
12664;BME280;6396;58.490;15.528;2023-09-18T02:41:08;101398.56;;;11.54;100.00
12664;BME280;6396;58.490;15.528;2023-09-18T02:43:35;101278.84;;;10.95;100.00
12664;BME280;6396;58.490;15.528;2023-09-18T02:46:03;101367.75;;;11.53;100.00
12664;BME280;6396;58.490;15.528;2023-09-18T02:48:30;101271.06;;;10.86;100.00
12664;BME280;6396;58.490;15.528;2023-09-18T02:50:59;101380.13;;;11.48;100.00
12664;BME280;6396;58.490;15.528;2023-09-18T02:53:26;101036.09;;;9.27;100.00
12664;BME280;6396;58.490;15.528;2023-09-18T02:55:54;101375.00;;;11.40;100.00
12664;BME280;6396;58.490;15.528;2023-09-18T02:58:21;101360.06;;;11.38;100.00
12664;BME280;6396;58.490;15.528;2023-09-18T03:00:49;101297.25;;;11.01;100.00
12664;BME280;6396;58.490;15.528;2023-09-18T03:03:16;101359.97;;;11.44;100.00
12664;BME280;6396;58.490;15.528;2023-09-18T03:05:44;101364.34;;;11.45;100.00
12664;BME280;6396;58.490;15.528;2023-09-18T03:08:13;101356.19;;;11.57;100.00
12664;BME280;6396;58.490;15.528;2023-09-18T03:10:42;101264.69;;;10.99;100.00
12664;BME280;6396;58.490;15.528;2023-09-18T03:13:10;101350.63;;;11.73;100.00
12664;BME280;6396;58.490;15.528;2023-09-18T03:15:37;101354.00;;;11.80;100.00
12664;BME280;6396;58.490;15.528;2023-09-18T03:18:05;101352.06;;;11.88;100.00
12664;BME280;6396;58.490;15.528;2023-09-18T03:20:33;101347.63;;;11.90;100.00
12664;BME280;6396;58.490;15.528;2023-09-18T03:23:00;101348.47;;;11.92;100.00
12664;BME280;6396;58.490;15.528;2023-09-18T03:25:29;101352.81;;;11.96;100.00
12664;BME280;6396;58.490;15.528;2023-09-18T03:27:57;101404.72;;;12.03;100.00
12664;BME280;6396;58.490;15.528;2023-09-18T03:30:24;101116.34;;;10.73;100.00
12664;BME280;6396;58.490;15.528;2023-09-18T03:32:52;101245.94;;;11.59;100.00
12664;BME280;6396;58.490;15.528;2023-09-18T03:35:20;101291.53;;;11.73;100.00
12664;BME280;6396;58.490;15.528;2023-09-18T03:37:48;101025.69;;;10.27;100.00
12664;BME280;6396;58.490;15.528;2023-09-18T03:40:16;101320.75;;;12.09;100.00
12664;BME280;6396;58.490;15.528;2023-09-18T03:42:44;101021.28;;;10.28;100.00
12664;BME280;6396;58.490;15.528;2023-09-18T03:45:11;101312.81;;;12.09;100.00
12664;BME280;6396;58.490;15.528;2023-09-18T03:47:38;101337.47;;;12.13;100.00
12664;BME280;6396;58.490;15.528;2023-09-18T03:50:07;101333.13;;;12.10;100.00
12664;BME280;6396;58.490;15.528;2023-09-18T03:52:34;101237.00;;;11.66;100.00
12664;BME280;6396;58.490;15.528;2023-09-18T03:55:01;101215.25;;;11.50;100.00
12664;BME280;6396;58.490;15.528;2023-09-18T03:57:28;101305.75;;;12.10;100.00
12664;BME280;6396;58.490;15.528;2023-09-18T03:59:56;101226.47;;;11.64;100.00
12664;BME280;6396;58.490;15.528;2023-09-18T04:02:24;101284.19;;;11.87;100.00
12664;BME280;6396;58.490;15.528;2023-09-18T04:04:52;101275.47;;;11.82;100.00
12664;BME280;6396;58.490;15.528;2023-09-18T04:07:20;101291.88;;;11.99;100.00
12664;BME280;6396;58.490;15.528;2023-09-18T04:09:47;101281.28;;;11.99;100.00
12664;BME280;6396;58.490;15.528;2023-09-18T04:12:13;101269.22;;;11.84;100.00
12664;BME280;6396;58.490;15.528;2023-09-18T04:14:41;101258.56;;;11.89;100.00
12664;BME280;6396;58.490;15.528;2023-09-18T04:17:09;101270.63;;;12.02;100.00
12664;BME280;6396;58.490;15.528;2023-09-18T04:19:36;101278.56;;;12.03;100.00
12664;BME280;6396;58.490;15.528;2023-09-18T04:22:03;100973.09;;;10.17;100.00
12664;BME280;6396;58.490;15.528;2023-09-18T04:24:30;101275.94;;;12.00;100.00
12664;BME280;6396;58.490;15.528;2023-09-18T04:26:57;101275.91;;;12.03;100.00
12664;BME280;6396;58.490;15.528;2023-09-18T04:29:23;101235.03;;;11.77;100.00
12664;BME280;6396;58.490;15.528;2023-09-18T04:31:50;101269.81;;;12.00;100.00
12664;BME280;6396;58.490;15.528;2023-09-18T04:34:20;101279.88;;;11.81;100.00
12664;BME280;6396;58.490;15.528;2023-09-18T04:36:47;101207.09;;;11.61;100.00
12664;BME280;6396;58.490;15.528;2023-09-18T04:39:14;101193.31;;;11.45;100.00
12664;BME280;6396;58.490;15.528;2023-09-18T04:41:41;101253.41;;;11.83;100.00
12664;BME280;6396;58.490;15.528;2023-09-18T04:44:08;101209.78;;;11.59;100.00
12664;BME280;6396;58.490;15.528;2023-09-18T04:46:38;101195.03;;;11.49;100.00
12664;BME280;6396;58.490;15.528;2023-09-18T04:49:04;101248.09;;;11.83;100.00
12664;BME280;6396;58.490;15.528;2023-09-18T04:51:34;101031.25;;;10.58;100.00
12664;BME280;6396;58.490;15.528;2023-09-18T04:54:01;101120.06;;;11.07;100.00
12664;BME280;6396;58.490;15.528;2023-09-18T04:56:29;101247.16;;;11.87;100.00
12664;BME280;6396;58.490;15.528;2023-09-18T04:58:56;101148.41;;;11.44;100.00
12664;BME280;6396;58.490;15.528;2023-09-18T05:01:23;101144.78;;;11.49;100.00
12664;BME280;6396;58.490;15.528;2023-09-18T05:03:51;101153.63;;;11.47;100.00
12664;BME280;6396;58.490;15.528;2023-09-18T05:06:18;101145.75;;;11.44;100.00
12664;BME280;6396;58.490;15.528;2023-09-18T05:08:47;101211.88;;;11.86;100.00
12664;BME280;6396;58.490;15.528;2023-09-18T05:11:14;100926.69;;;10.05;100.00
12664;BME280;6396;58.490;15.528;2023-09-18T05:13:42;101107.44;;;11.23;100.00
12664;BME280;6396;58.490;15.528;2023-09-18T05:16:08;101002.88;;;10.67;100.00
12664;BME280;6396;58.490;15.528;2023-09-18T05:18:35;101218.16;;;11.82;100.00
12664;BME280;6396;58.490;15.528;2023-09-18T05:21:03;101048.44;;;10.78;100.00
12664;BME280;6396;58.490;15.528;2023-09-18T05:23:30;101157.88;;;11.54;100.00
12664;BME280;6396;58.490;15.528;2023-09-18T05:25:59;101126.59;;;11.33;100.00
12664;BME280;6396;58.490;15.528;2023-09-18T05:28:26;100982.00;;;10.55;100.00
12664;BME280;6396;58.490;15.528;2023-09-18T05:30:53;101083.28;;;10.98;100.00
12664;BME280;6396;58.490;15.528;2023-09-18T05:33:20;101197.94;;;11.78;100.00
12664;BME280;6396;58.490;15.528;2023-09-18T05:35:47;101089.34;;;11.03;100.00
12664;BME280;6396;58.490;15.528;2023-09-18T05:38:14;101000.47;;;10.58;100.00
12664;BME280;6396;58.490;15.528;2023-09-18T05:40:43;101185.50;;;11.82;100.00
12664;BME280;6396;58.490;15.528;2023-09-18T05:43:11;101184.50;;;11.87;100.00
12664;BME280;6396;58.490;15.528;2023-09-18T05:45:38;101129.81;;;11.47;100.00
12664;BME280;6396;58.490;15.528;2023-09-18T05:48:05;101066.25;;;11.11;100.00
12664;BME280;6396;58.490;15.528;2023-09-18T05:50:33;101085.97;;;11.37;100.00
12664;BME280;6396;58.490;15.528;2023-09-18T05:53:01;101168.19;;;12.05;100.00
12664;BME280;6396;58.490;15.528;2023-09-18T05:55:29;101181.19;;;12.16;100.00
12664;BME280;6396;58.490;15.528;2023-09-18T05:57:56;101098.56;;;11.67;100.00
12664;BME280;6396;58.490;15.528;2023-09-18T06:00:25;101040.06;;;11.79;100.00
12664;BME280;6396;58.490;15.528;2023-09-18T06:02:52;101007.84;;;11.60;100.00
12664;BME280;6396;58.490;15.528;2023-09-18T06:05:19;100910.66;;;10.98;100.00
12664;BME280;6396;58.490;15.528;2023-09-18T06:07:47;101119.84;;;12.34;100.00
12664;BME280;6396;58.490;15.528;2023-09-18T06:10:14;101151.38;;;12.78;100.00
12664;BME280;6396;58.490;15.528;2023-09-18T06:12:43;101187.41;;;12.85;100.00
12664;BME280;6396;58.490;15.528;2023-09-18T06:15:10;101037.28;;;12.18;100.00
12664;BME280;6396;58.490;15.528;2023-09-18T06:17:40;101157.69;;;13.06;100.00
12664;BME280;6396;58.490;15.528;2023-09-18T06:20:08;100870.13;;;11.34;100.00
12664;BME280;6396;58.490;15.528;2023-09-18T06:22:36;101035.59;;;12.48;100.00
12664;BME280;6396;58.490;15.528;2023-09-18T06:25:04;101002.94;;;12.48;100.00
12664;BME280;6396;58.490;15.528;2023-09-18T06:27:33;101148.59;;;13.45;100.00
12664;BME280;6396;58.490;15.528;2023-09-18T06:30:02;101039.50;;;12.98;100.00
12664;BME280;6396;58.490;15.528;2023-09-18T06:32:29;101162.25;;;13.63;100.00
12664;BME280;6396;58.490;15.528;2023-09-18T06:34:57;101104.75;;;13.62;100.00
12664;BME280;6396;58.490;15.528;2023-09-18T06:37:24;101131.72;;;14.59;100.00
12664;BME280;6396;58.490;15.528;2023-09-18T06:39:51;101100.44;;;15.60;100.00
12664;BME280;6396;58.490;15.528;2023-09-18T06:42:18;101024.84;;;16.28;100.00
12664;BME280;6396;58.490;15.528;2023-09-18T06:44:45;100988.03;;;16.57;100.00
12664;BME280;6396;58.490;15.528;2023-09-18T06:47:12;101108.97;;;18.45;100.00
12664;BME280;6396;58.490;15.528;2023-09-18T06:49:41;100713.84;;;17.18;100.00
12664;BME280;6396;58.490;15.528;2023-09-18T06:52:10;101084.94;;;19.91;100.00
12664;BME280;6396;58.490;15.528;2023-09-18T06:54:38;101094.38;;;19.98;100.00
12664;BME280;6396;58.490;15.528;2023-09-18T06:57:06;101060.28;;;20.00;100.00
12664;BME280;6396;58.490;15.528;2023-09-18T06:59:33;101063.06;;;20.74;100.00
12664;BME280;6396;58.490;15.528;2023-09-18T07:02:00;100992.50;;;20.86;100.00
12664;BME280;6396;58.490;15.528;2023-09-18T07:04:27;101060.06;;;21.08;100.00
12664;BME280;6396;58.490;15.528;2023-09-18T07:06:54;100746.19;;;19.50;100.00
12664;BME280;6396;58.490;15.528;2023-09-18T07:09:23;101087.09;;;21.47;100.00
12664;BME280;6396;58.490;15.528;2023-09-18T07:11:51;100736.44;;;19.77;100.00
12664;BME280;6396;58.490;15.528;2023-09-18T07:14:18;101080.72;;;20.48;100.00
12664;BME280;6396;58.490;15.528;2023-09-18T07:16:44;101081.56;;;19.72;100.00
12664;BME280;6396;58.490;15.528;2023-09-18T07:19:11;101019.94;;;19.41;100.00
12664;BME280;6396;58.490;15.528;2023-09-18T07:21:42;101055.66;;;20.63;100.00
12664;BME280;6396;58.490;15.528;2023-09-18T07:24:09;101025.84;;;19.15;100.00
12664;BME280;6396;58.490;15.528;2023-09-18T07:26:43;100827.09;;;16.77;100.00
12664;BME280;6396;58.490;15.528;2023-09-18T07:29:11;101055.41;;;17.38;100.00
12664;BME280;6396;58.490;15.528;2023-09-18T07:31:38;101086.41;;;17.61;100.00
12664;BME280;6396;58.490;15.528;2023-09-18T07:34:05;100910.75;;;17.49;100.00
12664;BME280;6396;58.490;15.528;2023-09-18T07:36:32;101016.91;;;18.32;100.00
12664;BME280;6396;58.490;15.528;2023-09-18T07:38:59;100963.06;;;18.72;100.00
12664;BME280;6396;58.490;15.528;2023-09-18T07:41:26;101025.19;;;19.74;100.00
12664;BME280;6396;58.490;15.528;2023-09-18T07:43:54;100926.97;;;19.88;100.00
12664;BME280;6396;58.490;15.528;2023-09-18T07:46:22;100815.06;;;19.48;100.00
12664;BME280;6396;58.490;15.528;2023-09-18T07:48:49;100599.09;;;18.74;100.00
12664;BME280;6396;58.490;15.528;2023-09-18T07:51:16;100956.16;;;21.49;100.00
12664;BME280;6396;58.490;15.528;2023-09-18T07:53:43;100929.41;;;21.07;100.00
12664;BME280;6396;58.490;15.528;2023-09-18T07:56:09;100912.81;;;20.86;100.00
12664;BME280;6396;58.490;15.528;2023-09-18T07:58:37;100993.97;;;20.34;100.00
12664;BME280;6396;58.490;15.528;2023-09-18T08:01:06;100481.38;;;16.25;100.00
12664;BME280;6396;58.490;15.528;2023-09-18T08:03:34;100880.97;;;18.57;100.00
12664;BME280;6396;58.490;15.528;2023-09-18T08:06:01;100854.41;;;17.70;100.00
12664;BME280;6396;58.490;15.528;2023-09-18T08:08:30;100778.94;;;17.67;100.00
12664;BME280;6396;58.490;15.528;2023-09-18T08:11:00;100976.75;;;18.51;100.00
12664;BME280;6396;58.490;15.528;2023-09-18T08:13:27;100969.19;;;18.42;100.00
12664;BME280;6396;58.490;15.528;2023-09-18T08:15:55;100830.09;;;18.09;100.00
12664;BME280;6396;58.490;15.528;2023-09-18T08:18:23;100957.91;;;18.35;100.00
12664;BME280;6396;58.490;15.528;2023-09-18T08:20:52;100682.03;;;16.08;100.00
12664;BME280;6396;58.490;15.528;2023-09-18T08:23:20;100992.50;;;17.33;100.00
12664;BME280;6396;58.490;15.528;2023-09-18T08:25:46;100833.53;;;16.54;100.00
12664;BME280;6396;58.490;15.528;2023-09-18T08:28:16;100961.94;;;17.93;100.00
12664;BME280;6396;58.490;15.528;2023-09-18T08:30:42;100963.56;;;17.78;100.00
12664;BME280;6396;58.490;15.528;2023-09-18T08:33:12;100956.97;;;18.02;100.00
12664;BME280;6396;58.490;15.528;2023-09-18T08:35:40;100630.03;;;16.71;100.00
12664;BME280;6396;58.490;15.528;2023-09-18T08:38:07;100942.94;;;18.16;100.00
12664;BME280;6396;58.490;15.528;2023-09-18T08:40:34;100683.16;;;16.03;100.00
12664;BME280;6396;58.490;15.528;2023-09-18T08:43:01;100846.94;;;16.71;100.00
12664;BME280;6396;58.490;15.528;2023-09-18T08:45:35;100934.72;;;17.13;100.00
12664;BME280;6396;58.490;15.528;2023-09-18T08:48:03;100548.34;;;14.89;100.00
12664;BME280;6396;58.490;15.528;2023-09-18T08:50:30;100740.44;;;17.03;100.00
12664;BME280;6396;58.490;15.528;2023-09-18T08:52:59;100734.56;;;17.30;100.00
12664;BME280;6396;58.490;15.528;2023-09-18T08:55:26;100920.88;;;18.45;100.00
12664;BME280;6396;58.490;15.528;2023-09-18T08:57:54;100864.31;;;18.52;100.00
12664;BME280;6396;58.490;15.528;2023-09-18T09:00:22;100798.56;;;18.48;100.00
12664;BME280;6396;58.490;15.528;2023-09-18T09:02:48;100869.00;;;18.15;100.00
12664;BME280;6396;58.490;15.528;2023-09-18T09:05:17;100905.97;;;17.72;100.00
12664;BME280;6396;58.490;15.528;2023-09-18T09:07:44;100440.81;;;14.17;100.00
12664;BME280;6396;58.490;15.528;2023-09-18T09:10:12;100902.84;;;17.10;100.00
12664;BME280;6396;58.490;15.528;2023-09-18T09:12:55;100908.66;;;17.18;100.00
12664;BME280;6396;58.490;15.528;2023-09-18T09:15:24;100903.53;;;17.32;100.00
12664;BME280;6396;58.490;15.528;2023-09-18T09:17:52;100938.25;;;17.51;100.00
12664;BME280;6396;58.490;15.528;2023-09-18T09:20:20;100918.75;;;17.49;100.00
12664;BME280;6396;58.490;15.528;2023-09-18T09:22:47;100835.66;;;16.84;100.00
12664;BME280;6396;58.490;15.528;2023-09-18T09:25:25;100912.38;;;17.16;100.00
12664;BME280;6396;58.490;15.528;2023-09-18T09:27:53;100904.66;;;17.10;100.00
12664;BME280;6396;58.490;15.528;2023-09-18T09:30:22;100797.22;;;16.52;100.00
12664;BME280;6396;58.490;15.528;2023-09-18T09:32:49;100854.13;;;16.69;100.00
12664;BME280;6396;58.490;15.528;2023-09-18T09:35:24;100854.75;;;17.29;100.00
12664;BME280;6396;58.490;15.528;2023-09-18T09:37:54;100840.25;;;17.34;100.00
12664;BME280;6396;58.490;15.528;2023-09-18T09:40:22;100709.69;;;16.79;100.00
12664;BME280;6396;58.490;15.528;2023-09-18T09:42:55;100914.47;;;17.80;100.00
12664;BME280;6396;58.490;15.528;2023-09-18T09:45:26;100867.72;;;17.89;100.00
12664;BME280;6396;58.490;15.528;2023-09-18T09:47:55;100774.91;;;17.41;100.00
12664;BME280;6396;58.490;15.528;2023-09-18T09:50:22;100823.56;;;16.95;100.00
12664;BME280;6396;58.490;15.528;2023-09-18T09:52:52;100864.47;;;17.13;100.00
12664;BME280;6396;58.490;15.528;2023-09-18T09:55:24;100770.47;;;16.53;100.00
12664;BME280;6396;58.490;15.528;2023-09-18T09:57:56;100291.09;;;13.40;100.00
12664;BME280;6396;58.490;15.528;2023-09-18T10:00:27;100736.09;;;16.10;100.00
12664;BME280;6396;58.490;15.528;2023-09-18T10:02:59;100640.88;;;15.39;100.00
12664;BME280;6396;58.490;15.528;2023-09-18T10:05:28;100897.38;;;16.76;100.00
12664;BME280;6396;58.490;15.528;2023-09-18T10:07:59;100648.91;;;15.58;100.00
12664;BME280;6396;58.490;15.528;2023-09-18T10:10:31;100788.75;;;16.42;100.00
12664;BME280;6396;58.490;15.528;2023-09-18T10:13:06;100876.09;;;16.74;100.00
12664;BME280;6396;58.490;15.528;2023-09-18T10:15:35;100834.16;;;16.78;100.00
12664;BME280;6396;58.490;15.528;2023-09-18T10:18:05;100824.44;;;16.77;100.00
12664;BME280;6396;58.490;15.528;2023-09-18T10:20:37;100536.47;;;14.57;100.00
12664;BME280;6396;58.490;15.528;2023-09-18T10:23:14;100735.59;;;16.21;100.00
12664;BME280;6396;58.490;15.528;2023-09-18T10:25:48;100821.56;;;16.63;100.00
12664;BME280;6396;58.490;15.528;2023-09-18T10:28:18;100820.22;;;16.54;100.00
12664;BME280;6396;58.490;15.528;2023-09-18T10:30:47;100811.00;;;16.41;100.00
12664;BME280;6396;58.490;15.528;2023-09-18T10:33:16;100802.50;;;16.33;100.00
12664;BME280;6396;58.490;15.528;2023-09-18T10:35:43;100816.81;;;16.51;100.00
12664;BME280;6396;58.490;15.528;2023-09-18T10:38:13;100746.44;;;15.79;100.00
12664;BME280;6396;58.490;15.528;2023-09-18T10:40:43;100812.41;;;16.50;100.00
12664;BME280;6396;58.490;15.528;2023-09-18T10:43:11;100786.19;;;16.41;100.00
12664;BME280;6396;58.490;15.528;2023-09-18T10:45:39;100733.72;;;16.23;100.00
12664;BME280;6396;58.490;15.528;2023-09-18T10:48:08;100792.31;;;16.61;100.00
12664;BME280;6396;58.490;15.528;2023-09-18T10:50:35;100471.75;;;14.77;100.00
12664;BME280;6396;58.490;15.528;2023-09-18T10:53:05;100767.28;;;16.64;100.00
12664;BME280;6396;58.490;15.528;2023-09-18T10:55:32;100706.66;;;16.32;100.00
12664;BME280;6396;58.490;15.528;2023-09-18T10:58:00;100637.34;;;15.78;100.00
12664;BME280;6396;58.490;15.528;2023-09-18T11:00:29;100769.47;;;16.56;100.00
12664;BME280;6396;58.490;15.528;2023-09-18T11:03:11;100730.91;;;16.63;100.00
12664;BME280;6396;58.490;15.528;2023-09-18T11:05:39;100728.06;;;16.66;100.00
12664;BME280;6396;58.490;15.528;2023-09-18T11:08:25;100447.56;;;15.01;100.00
12664;BME280;6396;58.490;15.528;2023-09-18T11:10:59;100727.16;;;16.67;100.00
12664;BME280;6396;58.490;15.528;2023-09-18T11:13:34;100607.63;;;15.87;100.00
12664;BME280;6396;58.490;15.528;2023-09-18T11:16:03;100694.41;;;16.46;100.00
12664;BME280;6396;58.490;15.528;2023-09-18T11:18:41;100720.97;;;16.66;100.00
12664;BME280;6396;58.490;15.528;2023-09-18T11:21:09;100726.56;;;16.79;100.00
12664;BME280;6396;58.490;15.528;2023-09-18T11:23:37;100735.72;;;16.73;100.00
12664;BME280;6396;58.490;15.528;2023-09-18T11:26:08;100725.13;;;16.72;100.00
12664;BME280;6396;58.490;15.528;2023-09-18T11:28:37;100344.13;;;14.60;100.00
12664;BME280;6396;58.490;15.528;2023-09-18T11:31:04;100682.41;;;16.55;100.00
12664;BME280;6396;58.490;15.528;2023-09-18T11:33:35;100722.22;;;16.77;100.00
12664;BME280;6396;58.490;15.528;2023-09-18T11:36:06;100725.69;;;16.79;100.00
12664;BME280;6396;58.490;15.528;2023-09-18T11:38:34;100686.09;;;16.52;100.00
12664;BME280;6396;58.490;15.528;2023-09-18T11:41:20;100596.06;;;16.05;100.00
12664;BME280;6396;58.490;15.528;2023-09-18T11:43:47;100684.38;;;16.33;100.00
12664;BME280;6396;58.490;15.528;2023-09-18T11:46:18;100640.91;;;16.14;100.00
12664;BME280;6396;58.490;15.528;2023-09-18T11:48:47;100327.00;;;14.28;100.00
12664;BME280;6396;58.490;15.528;2023-09-18T11:51:22;100618.69;;;15.96;100.00
12664;BME280;6396;58.490;15.528;2023-09-18T11:53:52;100372.78;;;14.53;100.00
12664;BME280;6396;58.490;15.528;2023-09-18T11:56:20;100590.94;;;15.83;100.00
12664;BME280;6396;58.490;15.528;2023-09-18T11:58:47;100695.81;;;16.53;100.00
12664;BME280;6396;58.490;15.528;2023-09-18T12:01:14;100614.44;;;16.11;100.00
12664;BME280;6396;58.490;15.528;2023-09-18T12:03:42;100631.84;;;16.18;100.00
12664;BME280;6396;58.490;15.528;2023-09-18T12:06:09;100671.91;;;16.33;100.00
12664;BME280;6396;58.490;15.528;2023-09-18T12:08:40;100673.09;;;16.45;100.00
12664;BME280;6396;58.490;15.528;2023-09-18T12:11:07;100356.50;;;14.61;100.00
12664;BME280;6396;58.490;15.528;2023-09-18T12:13:34;100659.00;;;16.43;100.00
12664;BME280;6396;58.490;15.528;2023-09-18T12:16:02;100587.16;;;16.06;100.00
12664;BME280;6396;58.490;15.528;2023-09-18T12:18:30;100686.28;;;16.49;100.00
12664;BME280;6396;58.490;15.528;2023-09-18T12:21:01;100554.81;;;15.78;100.00
12664;BME280;6396;58.490;15.528;2023-09-18T12:23:36;100561.84;;;15.79;100.00
12664;BME280;6396;58.490;15.528;2023-09-18T12:26:06;100644.03;;;16.40;100.00
12664;BME280;6396;58.490;15.528;2023-09-18T12:28:35;100593.91;;;16.13;100.00
12664;BME280;6396;58.490;15.528;2023-09-18T12:31:02;100647.69;;;16.38;100.00
12664;BME280;6396;58.490;15.528;2023-09-18T12:33:34;100553.72;;;15.63;100.00
12664;BME280;6396;58.490;15.528;2023-09-18T12:36:02;100645.44;;;16.30;100.00
12664;BME280;6396;58.490;15.528;2023-09-18T12:38:30;100578.66;;;15.98;100.00
12664;BME280;6396;58.490;15.528;2023-09-18T12:40:58;100643.75;;;16.28;100.00
12664;BME280;6396;58.490;15.528;2023-09-18T12:43:37;100619.69;;;16.29;100.00
12664;BME280;6396;58.490;15.528;2023-09-18T12:46:05;100627.84;;;16.26;100.00